createdAt,value
2023-04-07T07:58:58.400Z,102301.63
2023-04-07T08:02:17.695Z,102296.59
2023-04-07T08:08:34.479Z,102317.88
2023-04-07T08:22:46.200Z,102304.66
2023-04-07T08:25:14.300Z,102311.44
2023-04-07T08:27:42.258Z,102306.72
2023-04-07T08:30:10.699Z,102316.81
2023-04-07T08:32:39.180Z,102308.66
2023-04-07T08:35:07.977Z,102309.75
2023-04-07T08:37:35.990Z,102306.47
2023-04-07T08:40:07.387Z,102315.28
2023-04-07T08:42:36.334Z,102308.00
2023-04-07T08:45:06.555Z,102308.59
2023-04-07T08:47:36.041Z,102311.16
2023-04-07T08:50:06.239Z,102306.91
2023-04-07T08:52:36.358Z,102295.09
2023-04-07T08:55:08.549Z,102300.16
2023-04-07T08:57:36.625Z,102288.19
2023-04-07T09:00:05.954Z,102281.53
2023-04-07T09:02:35.070Z,102278.69
2023-04-07T09:05:04.104Z,102282.03
2023-04-07T09:07:33.198Z,102286.16
2023-04-07T09:10:01.663Z,102284.16
2023-04-07T09:12:31.255Z,102272.81
2023-04-07T09:14:59.259Z,102285.19
2023-04-07T09:17:27.984Z,102277.56
2023-04-07T09:19:58.581Z,102278.66
2023-04-07T09:22:36.962Z,102282.28
2023-04-07T09:25:12.846Z,102276.94
2023-04-07T09:28:02.240Z,102270.19
2023-04-07T09:30:30.426Z,102271.94
2023-04-07T09:32:58.741Z,102263.63
2023-04-07T09:35:28.507Z,102270.81
2023-04-07T09:38:04.190Z,102263.06
2023-04-07T09:40:34.535Z,102268.81
2023-04-07T09:43:04.719Z,102261.97
2023-04-07T09:45:35.812Z,102262.16
2023-04-07T09:48:10.231Z,102253.47
2023-04-07T09:50:41.287Z,102257.66
2023-04-07T09:53:09.746Z,102251.75
2023-04-07T09:55:38.600Z,102242.41
2023-04-07T09:58:08.486Z,102240.38
2023-04-07T10:00:37.042Z,102253.47
2023-04-07T10:03:05.344Z,102244.91
2023-04-07T10:05:33.547Z,102235.06
2023-04-07T10:08:02.335Z,102227.75
2023-04-07T10:10:30.823Z,102224.69
2023-04-07T10:12:59.230Z,102227.50
2023-04-07T10:15:28.704Z,102228.88
2023-04-07T10:17:57.966Z,102228.03
2023-04-07T10:20:26.220Z,102212.94
2023-04-07T10:22:54.712Z,102213.34
2023-04-07T10:25:23.916Z,102209.94
2023-04-07T10:27:53.290Z,102217.56
2023-04-07T10:30:23.730Z,102216.66
2023-04-07T10:32:54.723Z,102205.94
2023-04-07T10:35:23.046Z,102202.66
2023-04-07T10:38:15.020Z,102210.09
2023-04-07T10:40:43.976Z,102198.84
2023-04-07T10:43:12.289Z,102200.34
2023-04-07T10:45:59.410Z,102187.88
2023-04-07T10:48:33.330Z,102191.13
2023-04-07T10:51:17.854Z,102183.22
2023-04-07T10:54:20.616Z,102186.31
2023-04-07T10:57:10.278Z,102181.47
2023-04-07T10:59:42.328Z,102180.91
2023-04-07T11:02:33.123Z,102190.34
2023-04-07T11:05:05.990Z,102179.41
2023-04-07T11:07:48.805Z,102182.28
2023-04-07T11:10:19.615Z,102186.38
2023-04-07T11:13:01.587Z,102176.34
2023-04-07T11:15:29.762Z,102169.47
2023-04-07T11:18:27.827Z,102182.00
2023-04-07T11:20:59.608Z,102176.31
2023-04-07T11:23:28.577Z,102170.22
2023-04-07T11:26:02.112Z,102176.63
2023-04-07T11:28:33.256Z,102178.66
2023-04-07T11:31:01.536Z,102175.88
2023-04-07T11:33:31.470Z,102179.56
2023-04-07T11:36:01.985Z,102178.47
2023-04-07T11:38:31.547Z,102175.22
2023-04-07T11:41:11.592Z,102184.84
2023-04-07T11:43:42.018Z,102185.19
2023-04-07T11:46:11.489Z,102177.13
2023-04-07T11:48:40.745Z,102173.41
2023-04-07T11:51:17.109Z,102175.06
2023-04-07T11:53:45.286Z,102180.97
2023-04-07T11:56:17.072Z,102175.41
2023-04-07T11:58:48.986Z,102175.09
2023-04-07T12:01:17.173Z,102162.59
2023-04-07T12:03:59.473Z,102161.13
2023-04-07T12:06:30.940Z,102172.91
2023-04-07T12:08:59.069Z,102168.63
2023-04-07T12:11:27.378Z,102170.06
2023-04-07T12:13:56.673Z,102181.06
2023-04-07T12:16:24.747Z,102174.84
2023-04-07T12:18:53.031Z,102171.88
2023-04-07T12:21:21.254Z,102166.69
2023-04-07T12:23:51.060Z,102167.66
2023-04-07T12:26:23.146Z,102167.47
2023-04-07T12:28:53.736Z,102164.16
2023-04-07T12:31:21.814Z,102170.66
2023-04-07T12:33:50.096Z,102167.88
2023-04-07T12:36:18.445Z,102164.03
2023-04-07T12:38:47.322Z,102164.81
2023-04-07T12:41:16.731Z,102160.75
2023-04-07T12:43:46.695Z,102156.16
2023-04-07T12:46:15.453Z,102149.88
2023-04-07T12:48:43.600Z,102156.38
2023-04-07T12:51:12.980Z,102159.50
2023-04-07T12:53:40.995Z,102150.22
2023-04-07T12:56:09.150Z,102163.13
2023-04-07T12:58:38.595Z,102151.34
2023-04-07T13:01:07.052Z,102152.66
2023-04-07T13:03:35.327Z,102158.50
2023-04-07T13:06:04.599Z,102152.94
2023-04-07T13:08:32.666Z,102157.03
2023-04-07T13:11:02.546Z,102159.50
2023-04-07T13:13:31.965Z,102163.28
2023-04-07T13:16:01.293Z,102154.28
2023-04-07T13:18:29.628Z,102155.00
2023-04-07T13:21:33.770Z,102152.16
2023-04-07T13:23:46.558Z,102150.53
2023-04-07T13:26:14.622Z,102151.56
2023-04-07T13:28:42.933Z,102151.66
2023-04-07T13:31:15.810Z,102149.22
2023-04-07T13:33:44.433Z,102143.69
2023-04-07T13:36:12.582Z,102147.38
2023-04-07T13:38:42.342Z,102137.69
2023-04-07T13:41:10.418Z,102137.63
2023-04-07T13:43:38.907Z,102140.38
2023-04-07T13:46:17.173Z,102143.16
2023-04-07T13:48:51.035Z,102138.47
2023-04-07T13:51:19.290Z,102129.50
2023-04-07T13:53:47.826Z,102127.91
2023-04-07T13:56:16.192Z,102131.91
2023-04-07T13:58:44.549Z,102101.00
2023-04-07T14:01:12.632Z,102132.47
2023-04-07T14:03:40.801Z,102125.09
2023-04-07T14:06:10.581Z,102118.91
2023-04-07T14:08:38.747Z,102125.53
2023-04-07T14:11:06.918Z,102126.84
2023-04-07T14:13:34.935Z,102123.78
2023-04-07T14:16:03.393Z,102115.25
2023-04-07T14:18:31.796Z,102123.94
2023-04-07T14:21:00.471Z,102118.53
2023-04-07T14:23:36.822Z,102124.63
2023-04-07T14:26:08.255Z,102120.38
2023-04-07T14:28:36.231Z,102119.28
2023-04-07T14:31:05.020Z,102113.97
2023-04-07T14:33:33.118Z,102115.69
2023-04-07T14:36:01.449Z,102110.78
2023-04-07T14:38:31.018Z,102109.19
2023-04-07T14:43:34.491Z,102103.22
2023-04-07T14:46:02.607Z,102103.50
2023-04-07T14:48:30.718Z,102095.28
2023-04-07T14:51:08.699Z,102096.50
2023-04-07T14:53:38.902Z,102092.44
2023-04-07T14:56:07.361Z,102095.88
2023-04-07T14:58:37.481Z,102091.66
2023-04-07T15:01:06.565Z,102086.22
2023-04-07T15:03:35.179Z,102093.28
2023-04-07T15:06:03.552Z,102090.88
2023-04-07T15:08:31.601Z,102096.06
2023-04-07T15:11:01.149Z,102092.66
2023-04-07T15:13:29.100Z,102088.53
2023-04-07T15:15:57.218Z,102085.06
2023-04-07T15:18:25.402Z,102095.34
2023-04-07T15:20:53.719Z,102090.59
2023-04-07T15:23:21.840Z,102086.63
2023-04-07T15:25:51.443Z,102081.28
2023-04-07T15:28:23.468Z,102083.94
2023-04-07T15:30:51.747Z,102076.06
2023-04-07T15:33:19.818Z,102089.06
2023-04-07T15:35:48.095Z,102079.13
2023-04-07T15:38:16.116Z,102082.38
2023-04-07T15:40:44.223Z,102087.47
2023-04-07T15:43:12.134Z,102082.19
2023-04-07T15:45:45.934Z,102078.31
2023-04-07T15:48:14.264Z,102080.44
2023-04-07T15:50:42.187Z,102071.31
2023-04-07T15:53:10.443Z,102069.94
2023-04-07T15:55:38.479Z,102079.19
2023-04-07T15:58:08.133Z,102072.75
2023-04-07T16:00:36.732Z,102084.34
2023-04-07T16:03:06.447Z,102077.44
2023-04-07T16:05:36.019Z,102078.63
2023-04-07T16:08:04.021Z,102085.97
2023-04-07T16:10:32.017Z,102088.81
2023-04-07T16:13:00.074Z,102083.97
2023-04-07T16:15:39.409Z,102077.88
2023-04-07T16:18:11.686Z,102088.59
2023-04-07T16:20:39.959Z,102086.63
2023-04-07T16:23:08.143Z,102085.38
2023-04-07T16:25:36.533Z,102082.59
2023-04-07T16:28:04.610Z,102080.72
2023-04-07T16:30:32.899Z,102081.78
2023-04-07T16:33:01.571Z,102079.97
2023-04-07T16:35:32.127Z,102075.06
2023-04-07T16:38:04.074Z,102085.97
2023-04-07T16:40:32.403Z,102083.25
2023-04-07T16:43:00.520Z,102082.09
2023-04-07T16:45:28.763Z,102086.00
2023-04-07T16:47:56.865Z,102084.28
2023-04-07T16:50:25.045Z,102077.09
2023-04-07T16:52:57.294Z,102078.63
2023-04-07T16:55:25.521Z,102084.84
2023-04-07T16:57:53.545Z,102078.66
2023-04-07T17:00:21.986Z,102077.84
2023-04-07T17:02:50.549Z,102086.00
2023-04-07T17:05:19.281Z,102078.78
2023-04-07T17:07:47.259Z,102086.34
2023-04-07T17:10:19.790Z,102080.34
2023-04-07T17:12:52.116Z,102072.91
2023-04-07T17:15:21.561Z,102074.88
2023-04-07T17:17:49.969Z,102074.31
2023-04-07T17:20:18.553Z,102083.66
2023-04-07T17:22:51.066Z,102078.47
2023-04-07T17:25:22.456Z,102086.66
2023-04-07T17:27:50.490Z,102074.66
2023-04-07T17:30:19.250Z,102084.03
2023-04-07T17:32:47.460Z,102080.31
2023-04-07T17:35:15.438Z,102081.00
2023-04-07T17:37:44.177Z,102077.22
2023-04-07T17:40:15.178Z,102071.59
2023-04-07T17:42:44.766Z,102071.16
2023-04-07T17:45:12.847Z,102078.06
2023-04-07T17:47:40.923Z,102076.81
2023-04-07T17:50:10.159Z,102081.19
2023-04-07T17:52:38.160Z,102083.91
2023-04-07T17:55:07.995Z,102090.25
2023-04-07T17:57:36.851Z,102096.78
2023-04-07T18:00:07.219Z,102115.03
2023-04-07T18:02:41.429Z,102105.31
2023-04-07T18:05:10.424Z,102113.69
2023-04-07T18:07:38.939Z,102118.81
2023-04-07T18:10:08.197Z,102121.31
2023-04-07T18:12:36.218Z,102125.03
2023-04-07T18:15:05.002Z,102121.78
2023-04-07T18:17:34.294Z,102117.53
2023-04-07T18:20:02.360Z,102121.25
2023-04-07T18:22:31.523Z,102131.88
2023-04-07T18:25:00.273Z,102132.38
2023-04-07T18:27:28.430Z,102138.94
2023-04-07T18:29:57.698Z,102142.16
2023-04-07T18:32:25.679Z,102148.38
2023-04-07T18:34:55.106Z,102154.78
2023-04-07T18:37:23.258Z,102152.09
2023-04-07T18:39:52.197Z,102151.38
2023-04-07T18:42:20.521Z,102148.66
2023-04-07T18:44:48.409Z,102145.34
2023-04-07T18:47:16.466Z,102154.97
2023-04-07T18:49:44.385Z,102152.28
2023-04-07T18:52:13.654Z,102151.66
2023-04-07T18:54:41.570Z,102155.50
2023-04-07T18:57:09.453Z,102162.97
2023-04-07T18:59:39.815Z,102157.25
2023-04-07T19:02:07.992Z,102169.66
2023-04-07T19:04:35.970Z,102163.34
2023-04-07T19:07:03.886Z,102165.03
2023-04-07T19:09:33.301Z,102173.50
2023-04-07T19:12:01.258Z,102178.84
2023-04-07T19:14:29.523Z,102176.56
2023-04-07T19:16:57.416Z,102178.41
2023-04-07T19:19:25.971Z,102188.94
2023-04-07T19:21:53.899Z,102188.78
2023-04-07T19:24:21.810Z,102202.97
2023-04-07T19:26:52.607Z,102197.47
2023-04-07T19:29:20.595Z,102208.00
2023-04-07T19:31:48.544Z,102212.50
2023-04-07T19:34:16.627Z,102215.97
2023-04-07T19:36:44.547Z,102207.91
2023-04-07T19:39:12.546Z,102204.25
2023-04-07T19:41:40.717Z,102217.97
2023-04-07T19:44:10.388Z,102219.25
2023-04-07T19:46:38.255Z,102214.72
2023-04-07T19:49:06.177Z,102219.00
2023-04-07T19:51:35.384Z,102219.94
2023-04-07T19:54:03.506Z,102222.53
2023-04-07T19:56:31.433Z,102237.50
2023-04-07T19:58:59.359Z,102230.41
2023-04-07T20:01:28.755Z,102233.72
2023-04-07T20:03:56.799Z,102230.84
2023-04-07T20:06:27.198Z,102234.97
2023-04-07T20:08:55.607Z,102241.91
2023-04-07T20:11:23.502Z,102243.47
2023-04-07T20:13:51.431Z,102241.31
2023-04-07T20:16:19.344Z,102244.59
2023-04-07T20:18:49.270Z,102255.28
2023-04-07T20:21:17.273Z,102247.31
2023-04-07T20:23:45.229Z,102243.31
2023-04-07T20:26:13.227Z,102249.16
2023-04-07T20:28:41.101Z,102242.84
2023-04-07T20:31:09.084Z,102255.31
2023-04-07T20:33:37.208Z,102253.25
2023-04-07T20:36:06.880Z,102253.97
2023-04-07T20:38:35.228Z,102254.25
2023-04-07T20:41:03.223Z,102260.53
2023-04-07T20:43:31.178Z,102263.53
2023-04-07T20:45:59.175Z,102261.00
2023-04-07T20:48:28.303Z,102266.06
2023-04-07T20:50:56.252Z,102267.50
2023-04-07T20:53:25.583Z,102261.63
2023-04-07T20:55:53.492Z,102263.06
2023-04-07T20:58:21.405Z,102261.97
2023-04-07T21:00:49.341Z,102272.38
2023-04-07T21:03:17.551Z,102275.38
2023-04-07T21:05:45.870Z,102277.41
2023-04-07T21:08:14.724Z,102270.38
2023-04-07T21:10:44.177Z,102276.75
2023-04-07T21:13:12.341Z,102278.69
2023-04-07T21:15:42.349Z,102282.06
2023-04-07T21:18:10.333Z,102272.53
2023-04-07T21:20:38.305Z,102280.63
2023-04-07T21:23:07.657Z,102277.47
2023-04-07T21:25:35.819Z,102282.78
2023-04-07T21:28:05.718Z,102277.69
2023-04-07T21:30:33.674Z,102278.41
2023-04-07T21:33:01.677Z,102283.09
2023-04-07T21:35:29.883Z,102285.88
2023-04-07T21:37:58.387Z,102284.41
2023-04-07T21:40:27.539Z,102287.28
2023-04-07T21:42:55.448Z,102284.13
2023-04-07T21:45:25.073Z,102295.81
2023-04-07T21:47:53.152Z,102297.13
2023-04-07T21:50:23.966Z,102296.50
2023-04-07T21:52:52.027Z,102295.88
2023-04-07T21:55:20.705Z,102300.44
2023-04-07T21:57:50.265Z,102292.72
2023-04-07T22:00:18.461Z,102299.72
2023-04-07T22:02:48.131Z,102296.09
2023-04-07T22:05:16.624Z,102296.09
2023-04-07T22:07:46.882Z,102297.78
2023-04-07T22:10:14.965Z,102297.78
2023-04-07T22:12:42.863Z,102303.94
2023-04-07T22:15:12.586Z,102292.47
2023-04-07T22:17:41.266Z,102298.63
2023-04-07T22:20:12.586Z,102290.56
2023-04-07T22:22:40.542Z,102300.44
2023-04-07T22:25:09.170Z,102298.13
2023-04-07T22:27:37.131Z,102295.72
2023-04-07T22:30:05.446Z,102300.28
2023-04-07T22:32:33.532Z,102307.38
2023-04-07T22:35:01.760Z,102291.66
2023-04-07T22:37:31.173Z,102299.78
2023-04-07T22:39:59.095Z,102298.06
2023-04-07T22:42:27.114Z,102293.81
2023-04-07T22:44:55.019Z,102289.56
2023-04-07T22:47:23.015Z,102290.84
2023-04-07T22:49:50.903Z,102290.09
2023-04-07T22:52:18.775Z,102285.78
2023-04-07T22:54:48.094Z,102298.06
2023-04-07T22:57:16.542Z,102286.75
2023-04-07T22:59:44.442Z,102294.69
2023-04-07T23:02:13.535Z,102293.00
2023-04-07T23:04:41.849Z,102298.06
2023-04-07T23:07:09.720Z,102299.78
2023-04-07T23:09:37.640Z,102297.88
2023-04-07T23:12:08.150Z,102301.25
2023-04-07T23:14:36.126Z,102294.88
2023-04-07T23:17:04.054Z,102311.66
2023-04-07T23:19:31.998Z,102308.03
2023-04-07T23:22:00.165Z,102310.69
2023-04-07T23:24:28.083Z,102306.56
2023-04-07T23:26:56.578Z,102305.31
2023-04-07T23:29:25.992Z,102307.44
2023-04-07T23:31:54.040Z,102305.88
2023-04-07T23:34:22.175Z,102310.72
2023-04-07T23:36:50.170Z,102309.34
2023-04-07T23:39:18.063Z,102307.00
2023-04-07T23:41:46.081Z,102307.44
2023-04-07T23:44:14.010Z,102306.59
2023-04-07T23:46:44.586Z,102307.66
2023-04-07T23:49:12.601Z,102304.28
2023-04-07T23:51:40.601Z,102310.72
2023-04-07T23:54:08.487Z,102304.69
2023-04-07T23:56:36.589Z,102299.38
2023-04-07T23:59:04.559Z,102306.38
